Kg Daf — VROG8 — position and weather

sailwx.info

Track history (hours):
 
Tides and Currents Weather Stations Pressure Air Temp Water Temp Dewpoint Dewpoint Depression Visibility Wind Speed Wind Dir Waves Ship Positions

Kg Daf

Last reported at 2018-May-13 23:16 UTC. Time now 2018-May-21 14:56 UTC.
Position N 41°39' E 141°31'.

Type: Cargo ship. MMSI: 401010000.

Date/timePositionNaut miles runAvg speedWind from/ knotsBaromVisibWave heightAir tempDewpointWater temp
2018-May-13 23:16N 41°39' E 141°31'617.7
2018-May-13 22:56N 41°39' E 141°23'816.7
2018-May-13 22:28N 41°39' E 141°12'918.8
2018-May-13 22:01N 41°39' E 141°01'918.3
2018-May-13 21:30N 41°37' E 140°49'918.1
2018-May-13 21:01N 41°31' E 140°39'1019.3
2018-May-13 20:30N 41°26' E 140°28'1018.7
2018-May-13 19:59N 41°20' E 140°18'64017.0
2018-May-12 06:21N 34°60' E 129°23'617.0
2018-May-12 05:59N 34°56' E 129°17'2114.4
2018-May-12 04:30N 34°56' E 128°51'4 0.3
2018-May-11 11:10N 34°60' E 128°48'210.3
2018-May-11 10:59N 34°58' E 128°49'612.4
2018-May-11 10:30N 34°53' E 128°53'28 8.3
2018-May-11 07:10N 34°25' E 128°52'211.1
2018-May-11 07:00N 34°24' E 128°50'812.2
2018-May-11 06:23N 34°17' E 128°46'3310.9
2018-May-11 03:19N 33°56' E 128°14'5316.3
2018-May-11 00:05N 33°21' E 127°27'8015.8
2018-May-10 19:01N 32°31' E 126°13'115.6
2018-May-10 18:57N 32°30' E 126°12'2615.7
2018-May-10 17:17N 32°14' E 125°47'515.9
2018-May-10 17:00N 32°12' E 125°43'815.9
2018-May-10 16:31N 32°07' E 125°36'4616.0
2018-May-10 13:40N 31°39' E 124°53'315.5
2018-May-10 13:30N 31°38' E 124°51'7815.8
2018-May-10 08:35N 30°52' E 123°38'8213.9
2018-May-10 02:40N 30°37' E 122°03'1 2.1
2018-May-10 02:23N 30°38' E 122°03'0 0.1
2018-May-10 01:40N 30°38' E 122°03'0 0.0
2018-May-10 01:01N 30°38' E 122°03'0 0.0
2018-May-10 00:40N 30°38' E 122°03'0 0.0
2018-May-10 00:16N 30°38' E 122°03'0 0.0
2018-May-09 23:58N 30°38' E 122°03'0 0.0
2018-May-09 13:19N 30°38' E 122°03'0 0.0
2018-May-09 13:00N 30°38' E 122°03'1 1.7
2018-May-09 12:30N 30°37' E 122°03'31 1.2
2018-May-08 11:19N 30°28' E 122°38'0 0.2
2018-May-08 10:43N 30°28' E 122°38'  
2018-May-04 08:47N 24°41' E 119°27'312.2
2018-May-04 08:29N 24°38' E 119°25'612.0
2018-May-04 08:00N 24°35' E 119°20'611.7
2018-May-04 07:30N 24°31' E 119°15'611.5
2018-May-04 06:58N 24°27' E 119°10'511.6
2018-May-04 06:30N 24°23' E 119°05'611.6
2018-May-04 06:00N 24°20' E 119°00'611.7
2018-May-04 05:28N 24°15' E 118°55'511.8
2018-May-04 05:00N 24°12' E 118°51'612.1
2018-May-04 04:30N 24°08' E 118°45'612.3
2018-May-04 04:00N 24°04' E 118°40'612.6
2018-May-04 03:30N 23°60' E 118°35'612.7
2018-May-04 03:00N 23°56' E 118°30'712.8
2018-May-04 02:28N 23°51' E 118°24'613.0
2018-May-04 02:00N 23°47' E 118°19'612.8
2018-May-04 01:30N 23°43' E 118°14'712.8
2018-May-04 00:59N 23°38' E 118°09'612.4
2018-May-04 00:30N 23°35' E 118°04'612.2
2018-May-04 00:00N 23°31' E 117°59'612.1
2018-May-03 23:29N 23°26' E 117°54'  
Track history (hours):
 
Tides and Currents Weather Stations Pressure Air Temp Water Temp Dewpoint Dewpoint Depression Visibility Wind Speed Wind Dir Waves Ship Positions

Kg Daf

Last reported at 2018-May-13 23:16 UTC. Time now 2018-May-21 14:56 UTC.
Position N 41°39' E 141°31'.

Type: Cargo ship. MMSI: 401010000.

Date/timePositionNaut miles runAvg speedWind from/ knotsBaromVisibWave heightAir tempDewpointWater temp
2018-May-13 23:16N 41°39' E 141°31'617.7
2018-May-13 22:56N 41°39' E 141°23'816.7
2018-May-13 22:28N 41°39' E 141°12'918.8
2018-May-13 22:01N 41°39' E 141°01'918.3
2018-May-13 21:30N 41°37' E 140°49'918.1
2018-May-13 21:01N 41°31' E 140°39'1019.3
2018-May-13 20:30N 41°26' E 140°28'1018.7
2018-May-13 19:59N 41°20' E 140°18'64017.0
2018-May-12 06:21N 34°60' E 129°23'617.0
2018-May-12 05:59N 34°56' E 129°17'2114.4
2018-May-12 04:30N 34°56' E 128°51'4 0.3
2018-May-11 11:10N 34°60' E 128°48'210.3
2018-May-11 10:59N 34°58' E 128°49'612.4
2018-May-11 10:30N 34°53' E 128°53'28 8.3
2018-May-11 07:10N 34°25' E 128°52'211.1
2018-May-11 07:00N 34°24' E 128°50'812.2
2018-May-11 06:23N 34°17' E 128°46'3310.9
2018-May-11 03:19N 33°56' E 128°14'5316.3
2018-May-11 00:05N 33°21' E 127°27'8015.8
2018-May-10 19:01N 32°31' E 126°13'115.6
2018-May-10 18:57N 32°30' E 126°12'2615.7
2018-May-10 17:17N 32°14' E 125°47'515.9
2018-May-10 17:00N 32°12' E 125°43'815.9
2018-May-10 16:31N 32°07' E 125°36'4616.0
2018-May-10 13:40N 31°39' E 124°53'315.5
2018-May-10 13:30N 31°38' E 124°51'7815.8
2018-May-10 08:35N 30°52' E 123°38'8213.9
2018-May-10 02:40N 30°37' E 122°03'1 2.1
2018-May-10 02:23N 30°38' E 122°03'0 0.1
2018-May-10 01:40N 30°38' E 122°03'0 0.0
2018-May-10 01:01N 30°38' E 122°03'0 0.0
2018-May-10 00:40N 30°38' E 122°03'0 0.0
2018-May-10 00:16N 30°38' E 122°03'0 0.0
2018-May-09 23:58N 30°38' E 122°03'0 0.0
2018-May-09 13:19N 30°38' E 122°03'0 0.0
2018-May-09 13:00N 30°38' E 122°03'1 1.7
2018-May-09 12:30N 30°37' E 122°03'31 1.2
2018-May-08 11:19N 30°28' E 122°38'0 0.2
2018-May-08 10:43N 30°28' E 122°38'  
2018-May-04 08:47N 24°41' E 119°27'312.2
2018-May-04 08:29N 24°38' E 119°25'612.0
2018-May-04 08:00N 24°35' E 119°20'611.7
2018-May-04 07:30N 24°31' E 119°15'611.5
2018-May-04 06:58N 24°27' E 119°10'511.6
2018-May-04 06:30N 24°23' E 119°05'611.6
2018-May-04 06:00N 24°20' E 119°00'611.7
2018-May-04 05:28N 24°15' E 118°55'511.8
2018-May-04 05:00N 24°12' E 118°51'612.1
2018-May-04 04:30N 24°08' E 118°45'612.3
2018-May-04 04:00N 24°04' E 118°40'612.6
2018-May-04 03:30N 23°60' E 118°35'612.7
2018-May-04 03:00N 23°56' E 118°30'712.8
2018-May-04 02:28N 23°51' E 118°24'613.0
2018-May-04 02:00N 23°47' E 118°19'612.8
2018-May-04 01:30N 23°43' E 118°14'712.8
2018-May-04 00:59N 23°38' E 118°09'612.4
2018-May-04 00:30N 23°35' E 118°04'612.2
2018-May-04 00:00N 23°31' E 117°59'612.1
2018-May-03 23:29N 23°26' E 117°54'  

Dump ship's entire track history